Time;durP1;ratioP1;P1;durP2;ratioP2;P2;SDS_P1;SDS_P2;PMS_P1;PMS_P2;Temp;Humidity;BMP_temperature;BMP_pressure;BME280_temperature;BME280_humidity;BME280_pressure;Samples;Min_cycle;Max_cycle;Signal;HPM_P1;HPM_P2
2023/06/25 00:01:49;;;;;;;20.38;14.65;;;;;;;;;;5059117;28;20098;-72
2023/06/25 00:04:15;;;;;;;19.08;13.40;;;;;;;;;;5061076;28;20053;-78
2023/06/25 00:06:41;;;;;;;19.27;14.32;;;;;;;;;;5037173;28;20181;-79
2023/06/25 00:09:07;;;;;;;23.08;15.75;;;;;;;;;;5055692;28;21477;-71
2023/06/25 00:11:34;;;;;;;22.70;16.95;;;;;;;;;;5037442;28;20048;-75
2023/06/25 00:13:59;;;;;;;18.98;15.32;;;;;;;;;;5055829;28;20548;-74
2023/06/25 00:16:29;;;;;;;21.98;16.52;;;;;;;;;;5057625;28;20049;-81
2023/06/25 00:18:55;;;;;;;22.83;17.13;;;;;;;;;;5056177;28;20048;-69
2023/06/25 00:21:21;;;;;;;21.23;16.77;;;;;;;;;;5056664;28;20041;-77
2023/06/25 00:23:47;;;;;;;23.95;17.48;;;;;;;;;;5054697;28;20037;-77
2023/06/25 00:26:13;;;;;;;22.92;16.50;;;;;;;;;;5060433;28;20032;-79
2023/06/25 00:28:39;;;;;;;25.00;18.38;;;;;;;;;;5057302;28;20664;-72
2023/06/25 00:31:05;;;;;;;25.30;19.05;;;;;;;;;;5057055;28;20142;-78
2023/06/25 00:33:34;;;;;;;26.70;19.13;;;;;;;;;;5059749;28;20048;-76
2023/06/25 00:36:06;;;;;;;25.48;18.60;;;;;;;;;;5057256;28;20071;-77
2023/06/25 00:38:32;;;;;;;21.85;17.65;;;;;;;;;;5059984;28;20087;-75
2023/06/25 00:40:58;;;;;;;29.60;19.55;;;;;;;;;;5059231;28;20032;-78
2023/06/25 00:43:24;;;;;;;24.13;18.00;;;;;;;;;;5057785;28;20052;-81
2023/06/25 00:45:50;;;;;;;23.05;17.73;;;;;;;;;;5059400;28;20045;-78
2023/06/25 00:48:16;;;;;;;25.55;19.10;;;;;;;;;;5062271;28;20064;-80
2023/06/25 00:50:42;;;;;;;27.05;19.60;;;;;;;;;;5059545;28;20076;-75
2023/06/25 00:53:09;;;;;;;28.13;20.45;;;;;;;;;;5060217;28;20063;-76
2023/06/25 00:55:36;;;;;;;25.50;19.48;;;;;;;;;;5053687;28;20045;-80
2023/06/25 00:58:03;;;;;;;22.15;18.17;;;;;;;;;;5061127;28;20697;-78
2023/06/25 01:00:30;;;;;;;22.67;18.08;;;;;;;;;;5051775;28;20060;-79
2023/06/25 01:03:03;;;;;;;23.17;17.83;;;;;;;;;;5057936;28;20048;-76
2023/06/25 01:05:32;;;;;;;25.80;18.38;;;;;;;;;;5054580;28;20496;-73
2023/06/25 01:07:58;;;;;;;;;;;;;;;;;;5059294;28;20585;-74
2023/06/25 01:10:24;;;;;;;24.38;17.95;;;;;;;;;;5056054;28;19959;-70
2023/06/25 01:12:52;;;;;;;25.13;17.83;;;;;;;;;;5056700;28;20519;-70
2023/06/25 01:15:18;;;;;;;24.42;18.35;;;;;;;;;;5055970;28;20064;-81
2023/06/25 01:17:48;;;;;;;23.20;18.42;;;;;;;;;;5057875;28;20063;-71
2023/06/25 01:20:15;;;;;;;25.65;18.30;;;;;;;;;;5058481;28;20127;-70
2023/06/25 01:22:41;;;;;;;21.75;17.02;;;;;;;;;;5059878;28;20056;-72
2023/06/25 01:25:08;;;;;;;23.40;18.70;;;;;;;;;;5059670;28;20032;-71
2023/06/25 01:27:34;;;;;;;21.25;16.83;;;;;;;;;;5058796;28;20148;-77
2023/06/25 01:30:01;;;;;;;24.63;18.73;;;;;;;;;;5056893;28;20131;-76
2023/06/25 01:32:27;;;;;;;21.92;17.38;;;;;;;;;;5054564;28;20044;-73
2023/06/25 01:34:54;;;;;;;22.70;17.88;;;;;;;;;;5059051;28;20048;-72
2023/06/25 01:37:20;;;;;;;23.35;18.77;;;;;;;;;;5058957;28;20496;-75
2023/06/25 01:39:48;;;;;;;18.73;16.10;;;;;;;;;;5059699;28;20074;-75
2023/06/25 01:42:14;;;;;;;23.20;17.55;;;;;;;;;;5056902;28;20082;-72
2023/06/25 01:44:40;;;;;;;26.48;19.70;;;;;;;;;;5058014;28;20454;-75
2023/06/25 01:47:06;;;;;;;23.35;18.48;;;;;;;;;;5056732;28;20037;-72
2023/06/25 01:49:32;;;;;;;22.65;17.63;;;;;;;;;;5058917;28;20845;-72
2023/06/25 01:51:59;;;;;;;22.92;16.98;;;;;;;;;;5058836;28;20040;-80
2023/06/25 01:54:25;;;;;;;28.92;20.88;;;;;;;;;;5059124;28;20042;-74
2023/06/25 01:56:51;;;;;;;26.58;19.98;;;;;;;;;;5059586;28;20407;-74
2023/06/25 01:59:17;;;;;;;29.42;22.25;;;;;;;;;;5056969;28;20098;-81
2023/06/25 02:01:43;;;;;;;34.50;23.85;;;;;;;;;;5050688;28;20055;-71
2023/06/25 02:04:09;;;;;;;32.78;23.95;;;;;;;;;;5059133;28;20047;-80
2023/06/25 02:06:35;;;;;;;32.45;23.83;;;;;;;;;;5056466;28;20425;-72
2023/06/25 02:09:02;;;;;;;41.53;27.15;;;;;;;;;;5057762;28;20060;-76
2023/06/25 02:11:28;;;;;;;41.33;28.08;;;;;;;;;;5051977;28;20064;-79
2023/06/25 02:13:54;;;;;;;37.85;25.25;;;;;;;;;;5059429;28;20052;-73
2023/06/25 02:16:20;;;;;;;38.35;27.20;;;;;;;;;;5054121;28;20052;-75
2023/06/25 02:18:46;;;;;;;38.75;26.83;;;;;;;;;;5060475;28;20186;-73
2023/06/25 02:21:12;;;;;;;33.17;24.70;;;;;;;;;;5056152;28;22439;-72
2023/06/25 02:23:38;;;;;;;43.10;27.42;;;;;;;;;;5041928;28;20035;-76
2023/06/25 02:26:04;;;;;;;46.15;29.92;;;;;;;;;;5057898;28;20084;-77
2023/06/25 02:28:30;;;;;;;42.10;28.98;;;;;;;;;;5058296;28;20400;-81
2023/06/25 02:30:56;;;;;;;43.58;29.25;;;;;;;;;;5057583;28;20385;-79
2023/06/25 02:33:22;;;;;;;43.40;28.27;;;;;;;;;;5033260;28;20041;-79
2023/06/25 02:35:48;;;;;;;39.90;26.90;;;;;;;;;;5052438;28;20399;-78
2023/06/25 02:38:14;;;;;;;36.10;25.58;;;;;;;;;;5054695;28;20044;-71
2023/06/25 02:40:41;;;;;;;34.13;24.70;;;;;;;;;;5056287;28;20973;-73
2023/06/25 02:43:07;;;;;;;32.25;24.92;;;;;;;;;;5059881;28;20060;-76
2023/06/25 02:45:33;;;;;;;30.65;22.63;;;;;;;;;;5059349;28;20045;-75
2023/06/25 02:47:59;;;;;;;29.48;23.33;;;;;;;;;;5062224;28;20135;-71
2023/06/25 02:50:25;;;;;;;34.60;23.80;;;;;;;;;;5061345;28;20241;-77
2023/06/25 02:52:51;;;;;;;35.92;23.83;;;;;;;;;;5065082;28;20048;-74
2023/06/25 02:55:17;;;;;;;32.17;22.65;;;;;;;;;;5060701;28;20044;-73
2023/06/25 02:57:43;;;;;;;36.42;24.08;;;;;;;;;;5062846;28;20093;-73
2023/06/25 03:00:09;;;;;;;29.10;22.65;;;;;;;;;;5060333;28;20044;-72
2023/06/25 03:02:35;;;;;;;33.35;23.23;;;;;;;;;;5060886;28;20055;-74
2023/06/25 03:05:01;;;;;;;34.03;23.30;;;;;;;;;;5059576;28;20454;-76
2023/06/25 03:07:27;;;;;;;25.85;20.98;;;;;;;;;;5058874;28;20044;-73
2023/06/25 03:09:53;;;;;;;32.05;21.83;;;;;;;;;;5062170;28;20047;-73
2023/06/25 03:12:19;;;;;;;29.38;22.60;;;;;;;;;;5060450;28;20484;-73
2023/06/25 03:14:45;;;;;;;31.83;22.15;;;;;;;;;;5060748;28;20175;-76
2023/06/25 03:17:11;;;;;;;29.08;20.85;;;;;;;;;;5053086;28;20062;-73
2023/06/25 03:19:37;;;;;;;27.08;20.35;;;;;;;;;;5060206;28;20584;-74
2023/06/25 03:22:03;;;;;;;29.02;21.73;;;;;;;;;;5055722;28;20131;-74
2023/06/25 03:24:29;;;;;;;26.98;20.17;;;;;;;;;;5061253;28;20060;-73
2023/06/25 03:26:55;;;;;;;27.88;20.20;;;;;;;;;;5060329;28;20091;-71
2023/06/25 03:29:21;;;;;;;35.17;21.08;;;;;;;;;;5061409;28;20048;-74
2023/06/25 03:31:47;;;;;;;32.28;20.50;;;;;;;;;;5059962;28;20040;-74
2023/06/25 03:34:13;;;;;;;28.77;20.40;;;;;;;;;;5061773;28;20060;-74
2023/06/25 03:36:39;;;;;;;29.02;21.38;;;;;;;;;;5059684;28;20175;-73
2023/06/25 03:39:05;;;;;;;32.47;21.98;;;;;;;;;;5062262;28;20561;-74
2023/06/25 03:41:31;;;;;;;31.05;20.60;;;;;;;;;;5059433;28;20127;-72
2023/06/25 03:43:57;;;;;;;30.08;20.63;;;;;;;;;;5062028;28;20102;-75
2023/06/25 03:46:23;;;;;;;32.28;22.35;;;;;;;;;;5055922;28;20398;-74
2023/06/25 03:48:49;;;;;;;31.63;22.42;;;;;;;;;;5062029;28;20042;-81
2023/06/25 03:51:15;;;;;;;29.60;22.23;;;;;;;;;;5061283;28;20049;-73
2023/06/25 03:53:41;;;;;;;27.77;21.15;;;;;;;;;;5061109;28;20826;-81
2023/06/25 03:56:08;;;;;;;29.63;22.67;;;;;;;;;;5061316;28;20106;-74
2023/06/25 03:58:34;;;;;;;33.65;22.95;;;;;;;;;;5061451;28;20501;-72
2023/06/25 04:01:00;;;;;;;32.83;23.30;;;;;;;;;;5053448;28;20523;-79
2023/06/25 04:03:27;;;;;;;32.83;22.95;;;;;;;;;;5040051;28;20063;-72
2023/06/25 04:05:53;;;;;;;28.23;21.25;;;;;;;;;;5059649;28;20055;-71
2023/06/25 04:08:19;;;;;;;29.75;22.33;;;;;;;;;;5057046;28;20052;-76
2023/06/25 04:10:45;;;;;;;32.40;22.85;;;;;;;;;;5061492;28;20072;-71
2023/06/25 04:13:11;;;;;;;30.05;22.05;;;;;;;;;;5058981;28;20052;-73
2023/06/25 04:15:37;;;;;;;31.08;21.20;;;;;;;;;;5041513;28;20041;-79
2023/06/25 04:18:04;;;;;;;27.95;21.25;;;;;;;;;;5056873;28;20045;-73
2023/06/25 04:20:30;;;;;;;27.63;21.30;;;;;;;;;;5057627;28;20044;-75
2023/06/25 04:22:57;;;;;;;32.15;22.10;;;;;;;;;;5055927;28;20048;-75
2023/06/25 04:25:23;;;;;;;32.67;22.92;;;;;;;;;;5036256;28;20040;-79
2023/06/25 04:27:49;;;;;;;31.80;21.35;;;;;;;;;;5061076;28;20807;-72
2023/06/25 04:30:15;;;;;;;31.80;23.02;;;;;;;;;;5057575;28;20534;-77
2023/06/25 04:32:41;;;;;;;31.48;21.42;;;;;;;;;;5058598;28;20059;-76
2023/06/25 04:35:07;;;;;;;29.48;22.15;;;;;;;;;;5041691;28;20028;-73
2023/06/25 04:37:33;;;;;;;31.42;22.77;;;;;;;;;;5054254;28;20114;-74
2023/06/25 04:40:00;;;;;;;30.88;22.27;;;;;;;;;;5056968;28;20036;-74
2023/06/25 04:42:26;;;;;;;31.10;22.13;;;;;;;;;;5048501;28;20224;-75
2023/06/25 04:44:52;;;;;;;37.45;24.13;;;;;;;;;;5041143;28;20044;-71
2023/06/25 04:47:18;;;;;;;31.00;23.52;;;;;;;;;;5055593;28;20040;-80
2023/06/25 04:49:44;;;;;;;31.77;24.52;;;;;;;;;;5053854;28;20086;-72
2023/06/25 04:52:18;;;;;;;32.90;24.02;;;;;;;;;;5054991;28;20121;-74
2023/06/25 04:54:44;;;;;;;29.58;23.25;;;;;;;;;;5057991;28;20052;-81
2023/06/25 04:57:10;;;;;;;31.60;23.75;;;;;;;;;;5053948;28;20033;-77
2023/06/25 04:59:37;;;;;;;30.35;22.80;;;;;;;;;;5056858;28;20132;-73
2023/06/25 05:02:04;;;;;;;30.23;22.33;;;;;;;;;;5055732;28;20059;-73
2023/06/25 05:04:30;;;;;;;29.92;22.58;;;;;;;;;;5035229;28;20045;-80
2023/06/25 05:06:56;;;;;;;32.53;22.52;;;;;;;;;;5053425;28;20407;-71
2023/06/25 05:09:25;;;;;;;29.15;21.85;;;;;;;;;;5054222;28;20126;-80
2023/06/25 05:11:51;;;;;;;25.33;20.73;;;;;;;;;;5052333;28;20106;-72
2023/06/25 05:14:17;;;;;;;30.08;22.00;;;;;;;;;;5043163;28;20040;-71
2023/06/25 05:16:43;;;;;;;25.52;20.40;;;;;;;;;;5058670;28;20062;-76
2023/06/25 05:19:09;;;;;;;28.63;20.63;;;;;;;;;;5058636;28;20048;-70
2023/06/25 05:21:35;;;;;;;27.02;20.67;;;;;;;;;;5058381;28;20064;-71
2023/06/25 05:24:05;;;;;;;26.05;21.00;;;;;;;;;;5060887;28;20459;-73
2023/06/25 05:26:31;;;;;;;26.52;21.10;;;;;;;;;;5057440;28;20044;-72
2023/06/25 05:28:57;;;;;;;27.67;19.42;;;;;;;;;;5057574;28;20051;-74
2023/06/25 05:31:24;;;;;;;27.83;20.30;;;;;;;;;;5055623;28;20041;-71
2023/06/25 05:33:50;;;;;;;31.15;20.08;;;;;;;;;;5058389;28;20487;-72
2023/06/25 05:36:16;;;;;;;26.92;20.35;;;;;;;;;;5060034;28;20051;-73
2023/06/25 05:38:42;;;;;;;26.95;20.20;;;;;;;;;;5058976;28;20067;-77
2023/06/25 05:41:09;;;;;;;30.40;19.48;;;;;;;;;;5055792;28;20633;-71
2023/06/25 05:43:35;;;;;;;25.83;20.00;;;;;;;;;;5057735;28;20807;-70
2023/06/25 05:46:00;;;;;;;26.67;20.10;;;;;;;;;;5057510;28;20046;-71
2023/06/25 05:48:27;;;;;;;24.92;20.45;;;;;;;;;;5059365;28;20605;-73
2023/06/25 05:50:53;;;;;;;22.92;19.35;;;;;;;;;;5060179;28;20451;-76
2023/06/25 05:53:20;;;;;;;24.83;18.77;;;;;;;;;;5039829;28;20041;-69
2023/06/25 05:55:46;;;;;;;25.73;19.00;;;;;;;;;;5058248;28;20044;-76
2023/06/25 05:58:12;;;;;;;27.10;19.90;;;;;;;;;;5060032;28;20455;-72
2023/06/25 06:00:38;;;;;;;21.33;15.70;;;;;;;;;;5057567;28;20033;-73
2023/06/25 06:03:07;;;;;;;20.23;16.63;;;;;;;;;;5051846;28;20131;-72
2023/06/25 06:05:33;;;;;;;22.35;15.63;;;;;;;;;;5057451;28;20177;-72
2023/06/25 06:07:59;;;;;;;19.65;15.65;;;;;;;;;;5055177;28;21445;-70
2023/06/25 06:10:24;;;;;;;17.88;14.60;;;;;;;;;;5058893;28;20048;-70
2023/06/25 06:12:50;;;;;;;19.80;15.10;;;;;;;;;;5060428;28;20135;-79
2023/06/25 06:15:17;;;;;;;22.10;14.80;;;;;;;;;;5056017;28;20285;-74
2023/06/25 06:17:43;;;;;;;17.90;13.27;;;;;;;;;;5064782;28;20507;-74
2023/06/25 06:20:09;;;;;;;21.40;14.88;;;;;;;;;;5065840;28;20044;-71
2023/06/25 06:22:35;;;;;;;20.05;13.70;;;;;;;;;;5061237;28;20517;-73
2023/06/25 06:25:01;;;;;;;17.83;14.38;;;;;;;;;;5049307;28;20048;-79
2023/06/25 06:27:27;;;;;;;17.90;14.40;;;;;;;;;;5064933;28;20222;-73
2023/06/25 06:29:53;;;;;;;17.42;14.15;;;;;;;;;;5064778;28;20033;-71
2023/06/25 06:32:19;;;;;;;17.65;14.25;;;;;;;;;;5061548;28;20067;-72
2023/06/25 06:34:45;;;;;;;22.50;14.93;;;;;;;;;;5063911;28;20672;-81
2023/06/25 06:37:11;;;;;;;22.17;14.10;;;;;;;;;;5064245;28;20044;-71
2023/06/25 06:39:37;;;;;;;19.67;13.77;;;;;;;;;;5062441;28;20036;-74
2023/06/25 06:42:03;;;;;;;19.92;14.82;;;;;;;;;;5058351;28;20044;-73
2023/06/25 06:44:30;;;;;;;19.05;14.88;;;;;;;;;;5065206;28;20685;-72
2023/06/25 06:46:56;;;;;;;23.17;15.10;;;;;;;;;;5051993;28;20045;-79
2023/06/25 06:49:22;;;;;;;18.65;13.82;;;;;;;;;;5054310;28;20311;-80
2023/06/25 06:51:48;;;;;;;20.38;14.40;;;;;;;;;;5055849;28;20703;-76
2023/06/25 06:54:14;;;;;;;16.75;13.30;;;;;;;;;;5062120;28;20742;-77
2023/06/25 06:56:40;;;;;;;19.23;14.90;;;;;;;;;;5057462;28;20036;-73
2023/06/25 06:59:06;;;;;;;19.42;15.15;;;;;;;;;;5061628;28;20036;-72
2023/06/25 07:01:33;;;;;;;20.00;14.13;;;;;;;;;;5060550;28;20825;-78
2023/06/25 07:03:59;;;;;;;20.13;14.77;;;;;;;;;;5058919;28;20095;-74
2023/06/25 07:06:25;;;;;;;19.30;14.73;;;;;;;;;;5061679;28;20474;-72
2023/06/25 07:08:51;;;;;;;18.63;15.45;;;;;;;;;;5056186;28;20053;-79
2023/06/25 07:11:18;;;;;;;18.02;13.65;;;;;;;;;;5058671;28;20123;-81
2023/06/25 07:13:46;;;;;;;18.27;14.82;;;;;;;;;;5059956;28;20052;-71
2023/06/25 07:16:12;;;;;;;17.10;14.63;;;;;;;;;;5056839;28;20636;-72
2023/06/25 07:18:38;;;;;;;19.20;15.20;;;;;;;;;;5043581;28;20049;-71
2023/06/25 07:21:05;;;;;;;16.45;13.68;;;;;;;;;;5061758;28;20040;-72
2023/06/25 07:23:31;;;;;;;16.93;14.77;;;;;;;;;;5058652;28;20786;-78
2023/06/25 07:25:57;;;;;;;22.30;13.68;;;;;;;;;;5039473;28;20036;-76
2023/06/25 07:28:23;;;;;;;17.73;14.30;;;;;;;;;;5054297;28;20094;-76
2023/06/25 07:30:49;;;;;;;19.45;14.98;;;;;;;;;;5055918;28;20033;-74
2023/06/25 07:33:15;;;;;;;17.80;13.93;;;;;;;;;;5060651;28;20139;-76
2023/06/25 07:35:41;;;;;;;17.52;14.60;;;;;;;;;;5059787;28;20040;-73
2023/06/25 07:38:07;;;;;;;17.65;15.07;;;;;;;;;;5061446;28;20090;-74
2023/06/25 07:40:33;;;;;;;15.30;12.73;;;;;;;;;;5059775;28;20072;-75
2023/06/25 07:42:59;;;;;;;14.85;13.10;;;;;;;;;;5058357;28;20053;-73
2023/06/25 07:45:25;;;;;;;16.58;13.60;;;;;;;;;;5036199;28;20055;-75
2023/06/25 07:47:51;;;;;;;17.08;12.85;;;;;;;;;;5055050;28;20098;-75
2023/06/25 07:50:17;;;;;;;17.73;13.77;;;;;;;;;;5056795;28;20469;-72
2023/06/25 07:52:43;;;;;;;15.23;12.75;;;;;;;;;;5060023;28;20045;-78
2023/06/25 07:55:09;;;;;;;15.20;13.60;;;;;;;;;;5038527;28;20040;-74
2023/06/25 07:57:35;;;;;;;15.65;12.90;;;;;;;;;;5055072;28;20090;-78
2023/06/25 08:00:01;;;;;;;16.30;12.65;;;;;;;;;;5055840;28;20040;-74
2023/06/25 08:02:27;;;;;;;29.23;13.10;;;;;;;;;;5046524;28;20102;-71
2023/06/25 08:04:53;;;;;;;16.67;13.68;;;;;;;;;;5055789;28;20056;-81
2023/06/25 08:07:19;;;;;;;19.50;13.73;;;;;;;;;;5056621;28;20040;-80
2023/06/25 08:09:48;;;;;;;14.45;12.38;;;;;;;;;;5037264;28;20040;-74
2023/06/25 08:12:14;;;;;;;16.25;12.55;;;;;;;;;;5058293;28;20056;-72
2023/06/25 08:14:45;;;;;;;15.75;11.93;;;;;;;;;;5053990;28;20044;-74
2023/06/25 08:17:14;;;;;;;16.52;12.23;;;;;;;;;;5042109;28;20527;-83
2023/06/25 08:19:44;;;;;;;16.90;11.82;;;;;;;;;;5058435;28;20056;-77
2023/06/25 08:22:10;;;;;;;14.15;12.63;;;;;;;;;;5056462;28;20051;-73
2023/06/25 08:24:36;;;;;;;15.30;11.75;;;;;;;;;;5059181;28;20118;-75
2023/06/25 08:27:02;;;;;;;15.20;12.30;;;;;;;;;;5043176;28;20652;-85
2023/06/25 08:29:29;;;;;;;14.32;11.88;;;;;;;;;;5060918;28;20072;-82
2023/06/25 08:31:55;;;;;;;15.40;13.02;;;;;;;;;;5057016;28;20045;-75
2023/06/25 08:34:21;;;;;;;13.73;12.32;;;;;;;;;;5062671;28;20377;-72
2023/06/25 08:36:47;;;;;;;13.70;11.50;;;;;;;;;;5059656;28;20083;-74
2023/06/25 08:39:13;;;;;;;13.98;10.68;;;;;;;;;;5059125;28;20056;-74
2023/06/25 08:41:39;;;;;;;14.50;10.10;;;;;;;;;;5059365;28;20071;-77
2023/06/25 08:44:05;;;;;;;14.07;9.95;;;;;;;;;;5057547;28;20424;-74
2023/06/25 08:46:32;;;;;;;12.60;11.05;;;;;;;;;;5042955;28;20040;-73
2023/06/25 08:48:58;;;;;;;10.50;9.40;;;;;;;;;;5058619;28;20036;-79
2023/06/25 08:51:25;;;;;;;15.68;11.05;;;;;;;;;;5053184;28;20047;-72
2023/06/25 08:53:51;;;;;;;11.50;8.68;;;;;;;;;;5055455;28;20139;-86
2023/06/25 08:56:17;;;;;;;11.25;8.45;;;;;;;;;;5055898;28;20075;-80
2023/06/25 08:58:44;;;;;;;9.80;8.73;;;;;;;;;;5055353;28;20053;-74
2023/06/25 09:01:12;;;;;;;13.82;9.02;;;;;;;;;;5057926;28;20072;-73
2023/06/25 09:03:38;;;;;;;10.45;8.90;;;;;;;;;;5057168;28;20052;-79
2023/06/25 09:06:11;;;;;;;12.15;8.73;;;;;;;;;;5055381;28;20044;-73
2023/06/25 09:08:40;;;;;;;9.77;7.07;;;;;;;;;;5060171;28;20060;-80
2023/06/25 09:11:09;;;;;;;8.18;7.38;;;;;;;;;;5041504;28;20084;-75
2023/06/25 09:13:36;;;;;;;10.15;7.68;;;;;;;;;;5054452;28;20117;-72
2023/06/25 09:16:03;;;;;;;10.73;7.47;;;;;;;;;;5055281;28;20055;-71
2023/06/25 09:18:32;;;;;;;7.57;6.77;;;;;;;;;;5059023;28;20098;-76
2023/06/25 09:21:02;;;;;;;8.55;6.65;;;;;;;;;;5060334;28;20356;-74
2023/06/25 09:23:28;;;;;;;7.72;6.80;;;;;;;;;;5056692;28;20044;-72
2023/06/25 09:25:54;;;;;;;9.70;6.55;;;;;;;;;;5042746;28;20106;-87
2023/06/25 09:28:20;;;;;;;7.93;5.60;;;;;;;;;;5057299;28;20044;-84
2023/06/25 09:30:54;;;;;;;8.57;6.38;;;;;;;;;;5051545;28;20377;-72
2023/06/25 09:33:29;;;;;;;6.60;5.65;;;;;;;;;;5073245;28;20041;-79
2023/06/25 09:36:05;;;;;;;9.88;6.63;;;;;;;;;;5069267;28;20606;-71
2023/06/25 09:38:31;;;;;;;6.90;5.88;;;;;;;;;;5050996;28;20036;-72
2023/06/25 09:41:00;;;;;;;9.90;5.35;;;;;;;;;;5055826;28;20075;-84
2023/06/25 09:43:27;;;;;;;9.88;5.65;;;;;;;;;;5059267;28;20496;-74
2023/06/25 09:45:53;;;;;;;7.57;5.85;;;;;;;;;;5054157;28;20048;-75
2023/06/25 09:48:22;;;;;;;8.13;5.63;;;;;;;;;;5055069;28;20044;-84
2023/06/25 09:50:54;;;;;;;9.40;5.50;;;;;;;;;;5053167;28;20571;-78
2023/06/25 09:53:26;;;;;;;6.20;4.95;;;;;;;;;;5051300;28;20048;-71
2023/06/25 09:55:52;;;;;;;9.02;5.93;;;;;;;;;;5050078;28;20056;-73
2023/06/25 09:58:19;;;;;;;6.47;5.50;;;;;;;;;;5047969;28;20120;-71
2023/06/25 10:00:45;;;;;;;5.70;5.15;;;;;;;;;;5053678;28;20102;-73
2023/06/25 10:03:12;;;;;;;6.07;5.30;;;;;;;;;;5048917;28;20555;-72
2023/06/25 10:05:38;;;;;;;9.48;5.40;;;;;;;;;;5048544;28;20465;-74
2023/06/25 10:08:04;;;;;;;10.10;5.50;;;;;;;;;;5045455;28;20125;-71
2023/06/25 10:10:31;;;;;;;8.32;5.43;;;;;;;;;;5048441;28;20036;-71
2023/06/25 10:12:57;;;;;;;8.20;5.93;;;;;;;;;;5051715;28;20055;-76
2023/06/25 10:15:34;;;;;;;8.20;6.50;;;;;;;;;;5032803;28;20056;-76
2023/06/25 10:18:01;;;;;;;7.28;5.97;;;;;;;;;;5034233;28;20953;-72
2023/06/25 10:20:32;;;;;;;6.53;5.37;;;;;;;;;;5049816;28;20083;-71
2023/06/25 10:23:02;;;;;;;8.00;5.10;;;;;;;;;;5050481;28;20740;-74
2023/06/25 10:25:28;;;;;;;9.25;4.78;;;;;;;;;;5053674;28;20053;-72
2023/06/25 10:28:10;;;;;;;8.00;4.88;;;;;;;;;;5046532;28;20040;-71
2023/06/25 10:30:37;;;;;;;8.15;4.82;;;;;;;;;;5052575;28;20143;-71
2023/06/25 10:33:04;;;;;;;4.90;4.43;;;;;;;;;;5052847;28;20051;-73
2023/06/25 10:35:36;;;;;;;9.30;4.70;;;;;;;;;;5035376;28;20408;-74
2023/06/25 10:38:03;;;;;;;5.22;4.43;;;;;;;;;;5056891;28;20063;-70
2023/06/25 10:40:32;;;;;;;5.85;3.70;;;;;;;;;;5048192;28;20062;-72
2023/06/25 10:42:58;;;;;;;6.10;4.68;;;;;;;;;;5051337;28;20049;-72
2023/06/25 10:45:24;;;;;;;5.20;4.45;;;;;;;;;;5034739;28;20085;-75
2023/06/25 10:47:59;;;;;;;7.10;4.60;;;;;;;;;;5051595;28;20126;-76
2023/06/25 10:50:25;;;;;;;6.38;4.60;;;;;;;;;;5051334;28;20044;-76
2023/06/25 10:52:53;;;;;;;5.55;4.97;;;;;;;;;;5048120;28;20079;-79
2023/06/25 10:55:22;;;;;;;7.05;4.72;;;;;;;;;;5048425;28;20045;-71
2023/06/25 10:57:49;;;;;;;5.97;4.18;;;;;;;;;;5048077;28;20060;-72
2023/06/25 11:00:15;;;;;;;6.30;4.38;;;;;;;;;;5049328;28;20075;-73
2023/06/25 11:02:41;;;;;;;4.78;3.90;;;;;;;;;;5048556;28;20045;-76
2023/06/25 11:05:08;;;;;;;6.35;4.32;;;;;;;;;;5059592;28;20047;-73
2023/06/25 11:07:34;;;;;;;7.53;5.25;;;;;;;;;;5058676;28;20048;-76
2023/06/25 11:10:01;;;;;;;6.30;4.65;;;;;;;;;;5063671;28;20408;-83
2023/06/25 11:12:28;;;;;;;5.35;4.57;;;;;;;;;;5061658;28;21072;-73
2023/06/25 11:14:54;;;;;;;11.55;4.20;;;;;;;;;;5064332;28;20068;-73
2023/06/25 11:17:20;;;;;;;5.97;4.45;;;;;;;;;;5045259;28;20129;-73
2023/06/25 11:19:54;;;;;;;5.80;4.40;;;;;;;;;;5061806;28;20036;-72
2023/06/25 11:22:20;;;;;;;9.40;4.72;;;;;;;;;;5063753;28;20033;-74
2023/06/25 11:24:46;;;;;;;5.40;4.25;;;;;;;;;;5044990;28;20523;-80
2023/06/25 11:27:14;;;;;;;5.40;4.40;;;;;;;;;;5064273;28;20044;-75
2023/06/25 11:29:40;;;;;;;;;;;;;;;;;;5064866;28;20068;-72
2023/06/25 11:32:11;;;;;;;6.18;3.95;;;;;;;;;;5061783;28;19920;-72
2023/06/25 11:34:43;;;;;;;5.03;3.85;;;;;;;;;;5063386;28;20436;-74
2023/06/25 11:37:10;;;;;;;6.05;4.10;;;;;;;;;;5063305;28;20052;-73
2023/06/25 11:39:43;;;;;;;4.75;3.95;;;;;;;;;;5062230;28;20113;-80
2023/06/25 11:42:10;;;;;;;4.53;4.03;;;;;;;;;;5061377;28;20044;-72
2023/06/25 11:44:36;;;;;;;5.93;4.38;;;;;;;;;;5063607;28;20048;-73
2023/06/25 11:47:02;;;;;;;8.30;4.38;;;;;;;;;;5061606;28;20033;-78
2023/06/25 11:49:28;;;;;;;5.47;3.90;;;;;;;;;;5063242;28;20542;-73
2023/06/25 11:51:54;;;;;;;5.93;3.92;;;;;;;;;;5064471;28;20044;-79
2023/06/25 11:54:20;;;;;;;4.75;3.65;;;;;;;;;;5060876;28;20048;-78
2023/06/25 11:56:46;;;;;;;5.75;4.22;;;;;;;;;;5060238;28;20063;-78
2023/06/25 11:59:12;;;;;;;4.53;3.75;;;;;;;;;;5061179;28;20103;-73
2023/06/25 12:01:37;;;;;;;3.38;3.08;;;;;;;;;;5062616;28;20110;-80
2023/06/25 12:04:03;;;;;;;3.35;3.03;;;;;;;;;;5061991;28;20645;-81
2023/06/25 12:06:29;;;;;;;4.97;4.03;;;;;;;;;;5059789;28;20044;-73
2023/06/25 12:08:55;;;;;;;4.80;3.45;;;;;;;;;;5045018;28;20629;-72
2023/06/25 12:11:21;;;;;;;7.10;4.10;;;;;;;;;;5061192;28;20032;-74
2023/06/25 12:13:47;;;;;;;5.75;3.67;;;;;;;;;;5058838;28;20044;-81
2023/06/25 12:16:13;;;;;;;7.20;3.15;;;;;;;;;;5043608;28;20206;-76
2023/06/25 12:18:39;;;;;;;4.68;2.83;;;;;;;;;;5062165;28;20059;-81
2023/06/25 12:21:05;;;;;;;3.80;3.03;;;;;;;;;;5061682;28;20126;-74
2023/06/25 12:23:31;;;;;;;4.38;3.08;;;;;;;;;;5061714;28;20045;-73
2023/06/25 12:25:57;;;;;;;5.60;3.60;;;;;;;;;;5061151;28;20048;-72
2023/06/25 12:28:25;;;;;;;4.18;2.80;;;;;;;;;;5061665;28;20408;-82
2023/06/25 12:30:51;;;;;;;5.93;3.33;;;;;;;;;;5061394;28;20040;-76
2023/06/25 12:33:17;;;;;;;4.60;3.42;;;;;;;;;;5059913;28;20051;-73
2023/06/25 12:35:43;;;;;;;4.90;3.50;;;;;;;;;;5061177;28;20117;-78
2023/06/25 12:38:09;;;;;;;4.75;3.67;;;;;;;;;;5061202;28;20048;-73
2023/06/25 12:40:35;;;;;;;5.10;3.45;;;;;;;;;;5063672;28;20044;-72
2023/06/25 12:43:01;;;;;;;5.65;3.50;;;;;;;;;;5062001;28;20054;-72
2023/06/25 12:45:27;;;;;;;5.40;3.83;;;;;;;;;;5061162;28;20411;-72
2023/06/25 12:47:53;;;;;;;4.07;3.42;;;;;;;;;;5060765;28;20561;-74
2023/06/25 12:50:19;;;;;;;4.18;3.35;;;;;;;;;;5061020;28;20088;-83
2023/06/25 12:52:46;;;;;;;7.13;3.70;;;;;;;;;;5060982;28;20428;-74
2023/06/25 12:55:12;;;;;;;5.55;3.60;;;;;;;;;;5059824;28;20045;-73
2023/06/25 12:57:38;;;;;;;4.22;3.50;;;;;;;;;;5062018;28;20063;-73
2023/06/25 13:00:05;;;;;;;5.53;3.92;;;;;;;;;;5061307;28;20048;-81
2023/06/25 13:02:31;;;;;;;3.83;3.40;;;;;;;;;;5060957;28;20048;-80
2023/06/25 13:04:57;;;;;;;4.68;3.80;;;;;;;;;;5041948;28;20052;-72
2023/06/25 13:07:23;;;;;;;5.07;3.63;;;;;;;;;;5060538;28;20055;-75
2023/06/25 13:09:49;;;;;;;6.38;3.50;;;;;;;;;;5044649;28;20075;-75
2023/06/25 13:12:16;;;;;;;4.30;3.65;;;;;;;;;;5058944;28;20473;-76
2023/06/25 13:14:44;;;;;;;4.75;3.80;;;;;;;;;;5050892;28;20198;-78
2023/06/25 13:17:10;;;;;;;4.82;4.03;;;;;;;;;;5059296;28;20045;-76
2023/06/25 13:19:38;;;;;;;4.25;3.85;;;;;;;;;;5060186;28;20735;-82
2023/06/25 13:22:05;;;;;;;5.07;3.90;;;;;;;;;;5060899;28;20056;-72
2023/06/25 13:24:31;;;;;;;6.03;3.90;;;;;;;;;;5059623;28;20552;-73
2023/06/25 13:27:01;;;;;;;6.15;4.05;;;;;;;;;;5058277;28;20048;-72
2023/06/25 13:29:28;;;;;;;5.35;3.80;;;;;;;;;;5061676;28;20048;-73
2023/06/25 13:31:54;;;;;;;4.53;3.95;;;;;;;;;;5062130;28;20084;-75
2023/06/25 13:34:20;;;;;;;5.20;3.70;;;;;;;;;;5060217;28;20073;-75
2023/06/25 13:36:46;;;;;;;4.95;3.83;;;;;;;;;;5061820;28;20382;-79
2023/06/25 13:39:12;;;;;;;6.45;4.07;;;;;;;;;;5060253;28;20040;-75
2023/06/25 13:41:38;;;;;;;5.35;4.18;;;;;;;;;;5049218;28;20109;-73
2023/06/25 13:44:04;;;;;;;6.47;3.90;;;;;;;;;;5060956;28;20075;-72
2023/06/25 13:46:30;;;;;;;5.35;3.97;;;;;;;;;;5059257;28;20082;-76
2023/06/25 13:48:56;;;;;;;5.85;4.13;;;;;;;;;;5060835;28;20076;-79
2023/06/25 13:51:22;;;;;;;8.65;4.00;;;;;;;;;;5060397;28;20056;-79
2023/06/25 13:53:48;;;;;;;5.80;4.00;;;;;;;;;;5058675;28;20053;-73
2023/06/25 13:56:15;;;;;;;7.65;3.83;;;;;;;;;;5058871;28;20455;-82
2023/06/25 13:58:41;;;;;;;5.07;3.97;;;;;;;;;;5061893;28;20237;-75
2023/06/25 14:01:07;;;;;;;5.72;3.88;;;;;;;;;;5060286;28;20481;-73
2023/06/25 14:03:33;;;;;;;5.35;3.50;;;;;;;;;;5060567;28;20048;-75
2023/06/25 14:05:59;;;;;;;3.85;3.35;;;;;;;;;;5062696;28;20140;-72
2023/06/25 14:08:25;;;;;;;6.65;3.53;;;;;;;;;;5058167;28;20045;-73
2023/06/25 14:10:51;;;;;;;4.43;3.70;;;;;;;;;;5060285;28;20044;-73
2023/06/25 14:13:20;;;;;;;7.50;3.60;;;;;;;;;;5059876;28;20110;-84
2023/06/25 14:15:46;;;;;;;9.10;4.05;;;;;;;;;;5059659;28;20068;-72
2023/06/25 14:18:12;;;;;;;4.80;4.20;;;;;;;;;;5060849;28;20055;-73
2023/06/25 14:20:38;;;;;;;4.57;3.70;;;;;;;;;;5059571;28;20438;-73
2023/06/25 14:23:04;;;;;;;6.28;4.00;;;;;;;;;;5061402;28;20503;-83
2023/06/25 14:25:30;;;;;;;5.15;4.03;;;;;;;;;;5059750;28;20086;-82